Terminal Aerodrome Forecast
Issued by NWS Caribou, ME

Home | Current Version | Previous Version | Text Only | Print | Product List | Glossary On
Versions: 1 2 3 4 5 6 7 8 9 10 11 12 13 14 15 16 17
170
FTUS41 KCAR 182320
TAFCAR
TAF
KCAR 182320Z 1900/1924 15005KT 6SM -SHRA OVC070
     FM190200 15006KT 2SM BR VCSH OVC050
     FM191200 16009KT P6SM VCSH BKN015=

USA.gov is the U.S. government's official web portal to all federal, state and local government web resources and services.